Time;durP1;ratioP1;P1;durP2;ratioP2;P2;SDS_P1;SDS_P2;PMS_P1;PMS_P2;Temp;Humidity;BMP_temperature;BMP_pressure;BME280_temperature;BME280_humidity;BME280_pressure;Samples;Min_cycle;Max_cycle;Signal;HPM_P1;HPM_P2
2022/03/23 00:02:07;;;;;;;;;;;2.80;89.30;;;;;;5086278;28;19920;-71
2022/03/23 00:04:35;;;;;;;;;;;2.80;89.80;;;;;;5086207;28;19920;-71
2022/03/23 00:07:01;;;;;;;;;;;2.80;90.00;;;;;;5085716;28;19927;-72
2022/03/23 00:09:28;;;;;;;;;;;2.80;90.00;;;;;;5086241;28;19921;-72
2022/03/23 00:11:54;;;;;;;;;;;2.70;90.00;;;;;;5086310;28;19974;-71
2022/03/23 00:14:21;;;;;;;;;;;2.70;90.10;;;;;;5086170;28;19926;-71
2022/03/23 00:16:48;;;;;;;;;;;2.70;90.20;;;;;;5085238;28;20226;-71
2022/03/23 00:19:14;;;;;;;;;;;2.60;90.20;;;;;;5085814;28;19932;-71
2022/03/23 00:21:42;;;;;;;;;;;2.50;90.30;;;;;;5085899;28;19927;-71
2022/03/23 00:24:09;;;;;;;;;;;2.50;90.30;;;;;;5085815;28;19920;-71
2022/03/23 00:26:36;;;;;;;;;;;2.40;90.40;;;;;;5085339;28;20116;-71
2022/03/23 00:29:02;;;;;;;;;;;2.40;90.50;;;;;;5085466;28;19921;-72
2022/03/23 00:31:29;;;;;;;;;;;2.40;90.60;;;;;;5085777;28;20011;-72
2022/03/23 00:33:55;;;;;;;;;;;2.30;90.60;;;;;;5085662;28;19920;-71
2022/03/23 00:36:22;;;;;;;;;;;2.30;90.70;;;;;;5085031;28;19927;-74
2022/03/23 00:38:50;;;;;;;;;;;2.30;90.80;;;;;;5085742;28;19924;-71
2022/03/23 00:41:17;;;;;;;;;;;2.20;90.80;;;;;;5102719;28;19928;-72
2022/03/23 00:43:44;;;;;;;;;;;2.20;90.90;;;;;;5105906;28;19927;-72
2022/03/23 00:46:10;;;;;;;;;;;2.20;90.90;;;;;;5105165;28;19927;-71
2022/03/23 00:48:37;;;;;;;;;;;2.20;91.10;;;;;;5105304;28;19928;-71
2022/03/23 00:51:04;;;;;;;;;;;2.20;91.10;;;;;;5105751;28;19920;-70
2022/03/23 00:53:31;;;;;;;;;;;2.10;91.10;;;;;;5105268;28;20092;-71
2022/03/23 00:55:59;;;;;;;;;;;2.20;91.30;;;;;;5104926;28;19920;-71
2022/03/23 00:58:26;;;;;;;;;;;2.10;91.40;;;;;;5104309;28;19924;-71
2022/03/23 01:00:53;;;;;;;;;;;2.10;91.50;;;;;;5103925;28;19943;-72
2022/03/23 01:03:19;;;;;;;;;;;2.10;91.50;;;;;;5104181;28;19969;-73
2022/03/23 01:05:46;;;;;;;;;;;2.10;91.70;;;;;;5103433;28;20203;-71
2022/03/23 01:08:13;;;;;;;;;;;2.10;91.80;;;;;;5099786;28;19927;-71
2022/03/23 01:10:39;;;;;;;;;;;2.00;91.90;;;;;;5083989;28;19920;-71
2022/03/23 01:13:07;;;;;;;;;;;2.10;92.10;;;;;;5083971;28;19927;-72
2022/03/23 01:15:34;;;;;;;;;;;2.00;92.60;;;;;;5083350;28;19927;-71
2022/03/23 01:18:00;;;;;;;;;;;2.00;92.40;;;;;;5083693;28;19942;-71
2022/03/23 01:20:27;;;;;;;;;;;1.90;92.60;;;;;;5084023;28;20119;-72
2022/03/23 01:22:53;;;;;;;;;;;2.00;92.80;;;;;;5098864;28;19920;-72
2022/03/23 01:25:20;;;;;;;;;;;2.00;92.70;;;;;;5083264;28;19928;-71
2022/03/23 01:27:47;;;;;;;;;;;2.00;92.60;;;;;;5083743;28;19939;-71
2022/03/23 01:30:16;;;;;;;;;;;2.00;92.70;;;;;;5083792;28;19944;-71
2022/03/23 01:32:43;;;;;;;;;;;2.00;92.90;;;;;;5083865;28;19921;-71
2022/03/23 01:35:10;;;;;;;;;;;1.90;93.10;;;;;;5083350;28;19920;-70
2022/03/23 01:37:37;;;;;;;;;;;1.90;93.30;;;;;;5082322;28;19920;-71
2022/03/23 01:40:04;;;;;;;;;;;1.90;93.60;;;;;;5083676;28;20233;-71
2022/03/23 01:42:30;;;;;;;;;;;1.90;93.80;;;;;;5098010;28;19920;-72
2022/03/23 01:44:57;;;;;;;;;;;1.90;94.00;;;;;;5088404;28;19927;-72
2022/03/23 01:47:25;;;;;;;;;;;1.80;94.30;;;;;;5082578;28;20220;-71
2022/03/23 01:49:53;;;;;;;;;;;1.80;94.40;;;;;;5083394;28;19921;-71
2022/03/23 01:52:22;;;;;;;;;;;1.80;94.60;;;;;;5087462;28;20115;-71
2022/03/23 01:54:49;;;;;;;;;;;1.80;94.90;;;;;;5103119;28;20375;-72
2022/03/23 01:57:17;;;;;;;;;;;1.70;94.90;;;;;;5021788;28;1737023;-71
2022/03/23 01:59:43;;;;;;;;;;;1.70;95.00;;;;;;5098622;28;19920;-72
2022/03/23 02:02:10;;;;;;;;;;;1.70;95.10;;;;;;5101735;28;19927;-72
2022/03/23 02:04:38;;;;;;;;;;;1.60;95.20;;;;;;5089647;28;20206;-71
2022/03/23 02:07:05;;;;;;;;;;;1.60;95.20;;;;;;5103259;28;19956;-71
2022/03/23 02:09:33;;;;;;;;;;;1.60;95.20;;;;;;5104158;28;19928;-71
2022/03/23 02:12:02;;;;;;;;;;;1.50;95.10;;;;;;5103608;28;20348;-71
2022/03/23 02:14:28;;;;;;;;;;;1.50;95.30;;;;;;5103742;28;19927;-71
2022/03/23 02:16:55;;;;;;;;;;;1.40;95.50;;;;;;5103201;28;19920;-71
2022/03/23 02:19:22;;;;;;;;;;;1.40;95.60;;;;;;5104055;28;19920;-72
2022/03/23 02:21:52;;;;;;;;;;;1.40;95.60;;;;;;5104077;28;20142;-71
2022/03/23 02:24:20;;;;;;;;;;;1.40;95.50;;;;;;5103697;28;19958;-71
2022/03/23 02:26:47;;;;;;;;;;;1.40;95.50;;;;;;5103345;28;19939;-71
2022/03/23 02:29:14;;;;;;;;;;;1.30;95.40;;;;;;5103976;28;19926;-71
2022/03/23 02:31:40;;;;;;;;;;;1.30;95.50;;;;;;5103976;28;19920;-71
2022/03/23 02:34:07;;;;;;;;;;;1.20;95.60;;;;;;5095488;28;19928;-71
2022/03/23 02:36:40;;;;;;;;;;;1.20;95.80;;;;;;5081014;28;19927;-71
2022/03/23 02:39:08;;;;;;;;;;;1.10;95.90;;;;;;5083450;28;19927;-71
2022/03/23 02:41:34;;;;;;;;;;;1.10;96.10;;;;;;5083517;28;19966;-71
2022/03/23 02:44:01;;;;;;;;;;;1.10;96.40;;;;;;5092178;28;19926;-71
2022/03/23 02:46:33;;;;;;;;;;;1.00;96.50;;;;;;5103039;28;19927;-72
2022/03/23 02:49:00;;;;;;;;;;;1.10;96.60;;;;;;5062168;28;20108;-71
2022/03/23 02:51:26;;;;;;;;;;;1.00;96.70;;;;;;5063549;28;19921;-71
2022/03/23 03:02:21;;;;;;;;;;;0.80;97.00;;;;;;5074425;28;20172;-72
2022/03/23 03:04:48;;;;;;;;;;;0.80;97.40;;;;;;5082724;28;19951;-72
2022/03/23 03:07:15;;;;;;;;;;;0.80;97.60;;;;;;5082514;28;20230;-72
2022/03/23 03:09:41;;;;;;;;;;;0.80;97.70;;;;;;5068192;28;19959;-71
2022/03/23 03:12:11;;;;;;;;;;;0.80;97.80;;;;;;5046666;28;20238;-72
2022/03/23 03:14:38;;;;;;;;;;;0.80;97.90;;;;;;5070679;28;20235;-72
2022/03/23 03:17:05;;;;;;;;;;;0.70;98.00;;;;;;5062288;28;19921;-72
2022/03/23 03:19:31;;;;;;;;;;;0.70;98.20;;;;;;5075957;28;19921;-72
2022/03/23 03:21:58;;;;;;;;;;;0.70;98.30;;;;;;5063620;28;19927;-71
2022/03/23 03:24:24;;;;;;;;;;;0.70;98.40;;;;;;5064246;28;19925;-71
2022/03/23 03:26:51;;;;;;;;;;;0.70;98.50;;;;;;5075864;28;19921;-72
2022/03/23 03:29:19;;;;;;;;;;;0.70;98.60;;;;;;5066554;28;19928;-72
2022/03/23 03:31:45;;;;;;;;;;;0.60;98.60;;;;;;5066334;28;19925;-72
2022/03/23 03:34:12;;;;;;;;;;;0.60;98.70;;;;;;5076768;28;19921;-72
2022/03/23 03:36:40;;;;;;;;;;;0.60;98.90;;;;;;5069405;28;19920;-71
2022/03/23 03:39:07;;;;;;;;;;;0.60;99.20;;;;;;5085560;28;19943;-71
2022/03/23 03:41:34;;;;;;;;;;;0.60;99.20;;;;;;5079317;28;20227;-72
2022/03/23 03:44:01;;;;;;;;;;;0.60;99.20;;;;;;5074513;28;19971;-72
2022/03/23 03:46:29;;;;;;;;;;;0.50;99.20;;;;;;5068678;28;19935;-72
2022/03/23 03:48:57;;;;;;;;;;;0.50;99.40;;;;;;5065890;28;19928;-71
2022/03/23 03:51:24;;;;;;;;;;;0.50;99.60;;;;;;5065920;28;19928;-72
2022/03/23 03:53:50;;;;;;;;;;;0.40;99.90;;;;;;5065920;28;19921;-72
2022/03/23 03:56:17;;;;;;;;;;;0.40;99.90;;;;;;5068558;28;19920;-71
2022/03/23 03:58:44;;;;;;;;;;;0.40;99.90;;;;;;5065710;28;19921;-72
2022/03/23 04:01:14;;;;;;;;;;;0.50;99.90;;;;;;5068737;28;19927;-71
2022/03/23 04:03:42;;;;;;;;;;;0.50;99.90;;;;;;5084082;28;20211;-72
2022/03/23 04:06:08;;;;;;;;;;;0.40;99.90;;;;;;5077510;28;19920;-72
2022/03/23 04:08:35;;;;;;;;;;;0.50;99.90;;;;;;5086038;28;19924;-72
2022/03/23 04:11:02;;;;;;;;;;;0.40;99.90;;;;;;5084750;28;19928;-71
2022/03/23 04:13:28;;;;;;;;;;;0.40;99.90;;;;;;5084116;28;19920;-72
2022/03/23 04:15:55;;;;;;;;;;;0.40;99.90;;;;;;5079489;28;20199;-72
2022/03/23 04:18:21;;;;;;;;;;;0.40;99.90;;;;;;5085470;28;19920;-72
2022/03/23 04:20:49;;;;;;;;;;;0.30;99.90;;;;;;5079482;28;19921;-71
2022/03/23 04:23:16;;;;;;;;;;;0.30;99.90;;;;;;5075456;28;19920;-72
2022/03/23 04:25:42;;;;;;;;;;;0.30;99.90;;;;;;5065532;28;19921;-72
2022/03/23 04:28:09;;;;;;;;;;;0.30;99.90;;;;;;5070191;28;20237;-72
2022/03/23 04:30:36;;;;;;;;;;;0.30;99.90;;;;;;5077647;28;19920;-71
2022/03/23 04:33:02;;;;;;;;;;;0.30;99.90;;;;;;5065179;28;19936;-72
2022/03/23 04:35:29;;;;;;;;;;;0.20;99.90;;;;;;5070001;28;20239;-72
2022/03/23 04:37:57;;;;;;;;;;;0.20;99.90;;;;;;5085238;28;19925;-72
2022/03/23 04:40:24;;;;;;;;;;;0.20;99.90;;;;;;5078149;28;19921;-72
2022/03/23 04:42:50;;;;;;;;;;;0.10;99.90;;;;;;5065240;28;19921;-71
2022/03/23 04:45:17;;;;;;;;;;;0.00;99.90;;;;;;5069261;28;19927;-71
2022/03/23 04:47:44;;;;;;;;;;;0.00;99.90;;;;;;5084868;28;19931;-71
2022/03/23 04:50:12;;;;;;;;;;;0.00;99.90;;;;;;5084732;28;19921;-72
2022/03/23 04:52:39;;;;;;;;;;;0.00;99.90;;;;;;5075966;28;19921;-72
2022/03/23 04:55:09;;;;;;;;;;;0.00;99.90;;;;;;5065911;28;19928;-71
2022/03/23 04:57:36;;;;;;;;;;;0.00;99.90;;;;;;5044209;28;19925;-72
2022/03/23 05:00:03;;;;;;;;;;;0.00;99.90;;;;;;5063392;28;21160;-72
2022/03/23 05:02:29;;;;;;;;;;;0.00;99.90;;;;;;5084377;28;20100;-71
2022/03/23 05:04:56;;;;;;;;;;;0.00;99.90;;;;;;5083427;28;19920;-72
2022/03/23 05:07:22;;;;;;;;;;;-0.10;99.90;;;;;;5064757;28;19929;-71
2022/03/23 05:09:49;;;;;;;;;;;-0.10;99.90;;;;;;5082667;28;19928;-71
2022/03/23 05:12:17;;;;;;;;;;;-0.10;99.90;;;;;;5064912;28;19921;-72
2022/03/23 05:14:43;;;;;;;;;;;-0.10;99.90;;;;;;5064470;28;19929;-72
2022/03/23 05:17:10;;;;;;;;;;;-0.10;99.90;;;;;;5070878;28;20206;-72
2022/03/23 05:19:37;;;;;;;;;;;-0.10;99.90;;;;;;5068217;28;20222;-70
2022/03/23 05:22:03;;;;;;;;;;;-0.10;99.90;;;;;;5074432;28;20115;-69
2022/03/23 05:24:30;;;;;;;;;;;-0.20;99.90;;;;;;5065592;28;19921;-74
2022/03/23 05:26:57;;;;;;;;;;;-0.20;99.90;;;;;;5080009;28;19920;-71
2022/03/23 05:29:24;;;;;;;;;;;-0.20;99.90;;;;;;5083722;28;19920;-71
2022/03/23 05:31:51;;;;;;;;;;;-0.20;99.90;;;;;;5084007;28;19921;-71
2022/03/23 05:34:18;;;;;;;;;;;-0.20;99.90;;;;;;5083796;28;19920;-71
2022/03/23 05:36:44;;;;;;;;;;;-0.10;99.90;;;;;;5074450;28;19927;-71
2022/03/23 05:39:11;;;;;;;;;;;-0.20;99.90;;;;;;5075282;28;19921;-71
2022/03/23 05:41:37;;;;;;;;;;;-0.20;99.90;;;;;;5074002;28;20105;-71
2022/03/23 05:44:04;;;;;;;;;;;-0.10;99.90;;;;;;5063922;28;20208;-71
2022/03/23 05:46:32;;;;;;;;;;;-0.10;99.90;;;;;;5063003;28;19927;-71
2022/03/23 05:48:59;;;;;;;;;;;-0.10;99.90;;;;;;5079513;28;20198;-71
2022/03/23 05:51:25;;;;;;;;;;;-0.10;99.90;;;;;;5076905;28;19927;-71
2022/03/23 05:53:52;;;;;;;;;;;-0.10;99.90;;;;;;5063779;28;19927;-71
2022/03/23 05:56:19;;;;;;;;;;;0.00;99.90;;;;;;5074961;28;20275;-71
2022/03/23 05:58:45;;;;;;;;;;;0.00;99.90;;;;;;5082235;28;19927;-71
2022/03/23 06:01:12;;;;;;;;;;;0.00;99.90;;;;;;5076893;28;20204;-70
2022/03/23 06:03:40;;;;;;;;;;;0.00;99.90;;;;;;5083351;28;20104;-70
2022/03/23 06:06:09;;;;;;;;;;;-0.10;99.90;;;;;;5080645;28;19924;-71
2022/03/23 06:08:35;;;;;;;;;;;-0.10;99.90;;;;;;5071232;28;19928;-71
2022/03/23 06:11:02;;;;;;;;;;;0.00;99.90;;;;;;5056833;28;19921;-71
2022/03/23 06:13:29;;;;;;;;;;;0.00;99.90;;;;;;5047153;28;20089;-71
2022/03/23 06:15:56;;;;;;;;;;;0.00;99.90;;;;;;5064464;28;19943;-71
2022/03/23 06:18:22;;;;;;;;;;;0.00;99.90;;;;;;5071336;28;19927;-71
2022/03/23 06:20:51;;;;;;;;;;;0.00;99.90;;;;;;5068656;28;20139;-71
2022/03/23 06:23:17;;;;;;;;;;;0.10;99.90;;;;;;5063186;28;19929;-71
2022/03/23 06:25:44;;;;;;;;;;;0.10;99.90;;;;;;5055610;28;19933;-71
2022/03/23 06:28:11;;;;;;;;;;;0.10;99.90;;;;;;5068771;28;19920;-70
2022/03/23 06:30:39;;;;;;;;;;;0.20;99.90;;;;;;5076165;28;19928;-71
2022/03/23 06:33:05;;;;;;;;;;;0.20;99.90;;;;;;5072382;28;19920;-71
2022/03/23 06:35:32;;;;;;;;;;;0.30;99.90;;;;;;5073680;28;19925;-71
2022/03/23 06:38:00;;;;;;;;;;;0.30;99.90;;;;;;5060385;28;19944;-71
2022/03/23 06:40:26;;;;;;;;;;;0.30;99.90;;;;;;5068752;28;19947;-71
2022/03/23 06:42:53;;;;;;;;;;;0.40;99.90;;;;;;5068816;28;19929;-71
2022/03/23 06:45:19;;;;;;;;;;;0.40;99.90;;;;;;5060853;28;19921;-70
2022/03/23 06:47:46;;;;;;;;;;;0.50;99.90;;;;;;5062924;28;19951;-71
2022/03/23 06:50:13;;;;;;;;;;;0.50;99.90;;;;;;5073458;28;19943;-71
2022/03/23 06:52:39;;;;;;;;;;;0.60;99.90;;;;;;5065860;28;19936;-70
2022/03/23 06:55:08;;;;;;;;;;;0.70;99.90;;;;;;5076421;28;19927;-70
2022/03/23 06:57:35;;;;;;;;;;;0.70;99.90;;;;;;5061158;28;19929;-70
2022/03/23 07:00:02;;;;;;;;;;;0.80;99.90;;;;;;5062284;28;20151;-70
2022/03/23 07:02:29;;;;;;;;;;;0.90;99.90;;;;;;5069142;28;19928;-71
2022/03/23 07:04:55;;;;;;;;;;;0.90;99.90;;;;;;5074291;28;19942;-71
2022/03/23 07:07:22;;;;;;;;;;;1.00;99.90;;;;;;5070822;28;19921;-70
2022/03/23 07:09:47;;;;;;;;;;;1.10;99.90;;;;;;5072652;28;19927;-71
2022/03/23 07:12:17;;;;;;;;;;;1.20;99.90;;;;;;5072821;28;19952;-71
2022/03/23 07:14:43;;;;;;;;;;;1.30;99.90;;;;;;5074403;28;20211;-72
2022/03/23 07:17:10;;;;;;;;;;;1.30;99.90;;;;;;5084424;28;19921;-69
2022/03/23 07:19:37;;;;;;;;;;;1.40;99.90;;;;;;5086191;28;19927;-71
2022/03/23 07:22:04;;;;;;;;;;;1.50;99.90;;;;;;5086690;28;20229;-71
2022/03/23 07:24:30;;;;;;;;;;;1.60;99.90;;;;;;5070527;28;19920;-71
2022/03/23 07:26:59;;;;;;;;;;;1.80;99.90;;;;;;5082813;28;19928;-71
2022/03/23 07:29:27;;;;;;;;;;;1.90;99.90;;;;;;5068818;28;19927;-73
2022/03/23 07:31:54;;;;;;;;;;;2.10;99.90;;;;;;5069531;28;19920;-72
2022/03/23 07:34:21;;;;;;;;;;;2.20;99.90;;;;;;5066340;28;19928;-71
2022/03/23 07:36:48;;;;;;;;;;;2.30;99.90;;;;;;5065831;28;19927;-71
2022/03/23 07:39:20;;;;;;;;;;;2.30;99.90;;;;;;5073449;28;19921;-71
2022/03/23 07:41:49;;;;;;;;;;;2.40;99.90;;;;;;5075237;28;19920;-71
2022/03/23 07:44:16;;;;;;;;;;;2.50;99.90;;;;;;5074377;28;19940;-71
2022/03/23 07:46:44;;;;;;;;;;;2.60;99.90;;;;;;5073124;28;20185;-71
2022/03/23 07:49:11;;;;;;;;;;;2.80;99.90;;;;;;5068466;28;19925;-71
2022/03/23 07:51:39;;;;;;;;;;;3.00;99.90;;;;;;5070832;28;19928;-72
2022/03/23 07:54:05;;;;;;;;;;;3.20;99.90;;;;;;5071442;28;19946;-71
2022/03/23 07:56:32;;;;;;;;;;;3.40;99.90;;;;;;5069858;28;19925;-71
2022/03/23 07:58:59;;;;;;;;;;;3.60;99.90;;;;;;5075692;28;20120;-72
2022/03/23 08:01:25;;;;;;;;;;;3.90;99.90;;;;;;5072712;28;20266;-71
2022/03/23 08:03:53;;;;;;;;;;;4.10;99.90;;;;;;5070258;28;19924;-71
2022/03/23 08:06:20;;;;;;;;;;;4.20;99.90;;;;;;5070440;28;19920;-71
2022/03/23 08:08:46;;;;;;;;;;;4.30;99.90;;;;;;5075195;28;19928;-72
2022/03/23 08:11:13;;;;;;;;;;;4.50;99.90;;;;;;5069705;28;20208;-71
2022/03/23 08:13:39;;;;;;;;;;;4.70;99.90;;;;;;5077674;28;19927;-71
2022/03/23 08:16:06;;;;;;;;;;;4.80;99.90;;;;;;5067981;28;20223;-71
2022/03/23 08:18:33;;;;;;;;;;;5.00;99.90;;;;;;5069988;28;19983;-72
2022/03/23 08:21:01;;;;;;;;;;;5.10;99.90;;;;;;5072747;28;19943;-71
2022/03/23 08:23:30;;;;;;;;;;;5.20;99.90;;;;;;5070417;28;19920;-71
2022/03/23 08:25:56;;;;;;;;;;;5.40;99.90;;;;;;5075948;28;20143;-71
2022/03/23 08:28:23;;;;;;;;;;;5.60;98.70;;;;;;5068829;28;20147;-71
2022/03/23 08:30:49;;;;;;;;;;;5.70;98.80;;;;;;5070199;28;19927;-72
2022/03/23 08:33:16;;;;;;;;;;;5.90;98.40;;;;;;5073483;28;19927;-70
2022/03/23 08:35:43;;;;;;;;;;;6.00;97.80;;;;;;5072734;28;19929;-71
2022/03/23 08:38:11;;;;;;;;;;;6.10;97.10;;;;;;5069176;28;19921;-72
2022/03/23 08:40:37;;;;;;;;;;;6.30;97.20;;;;;;5068661;28;19924;-71
2022/03/23 08:43:04;;;;;;;;;;;6.30;96.80;;;;;;5075386;28;19921;-72
2022/03/23 08:45:30;;;;;;;;;;;6.50;95.30;;;;;;5070158;28;19931;-69
2022/03/23 08:47:57;;;;;;;;;;;6.70;94.90;;;;;;5066336;28;19925;-71
2022/03/23 08:50:24;;;;;;;;;;;6.80;94.20;;;;;;5071137;28;20113;-72
2022/03/23 08:52:52;;;;;;;;;;;7.00;94.30;;;;;;5070695;28;19927;-71
2022/03/23 08:55:21;;;;;;;;;;;7.30;92.80;;;;;;5069353;28;19920;-71
2022/03/23 08:57:48;;;;;;;;;;;7.50;92.00;;;;;;5066545;28;19959;-73
2022/03/23 09:00:15;;;;;;;;;;;7.60;92.70;;;;;;5066709;28;19920;-71
2022/03/23 09:02:41;;;;;;;;;;;7.80;92.50;;;;;;5069834;28;19929;-69
2022/03/23 09:05:10;;;;;;;;;;;8.00;90.90;;;;;;5076187;28;19936;-70
2022/03/23 09:07:37;;;;;;;;;;;8.10;90.80;;;;;;5071683;28;19920;-69
2022/03/23 09:10:04;;;;;;;;;;;8.20;90.10;;;;;;5063634;28;19924;-69
2022/03/23 09:12:32;;;;;;;;;;;8.30;89.90;;;;;;5073849;28;20150;-69
2022/03/23 09:14:59;;;;;;;;;;;8.50;89.80;;;;;;5065685;28;19944;-68
2022/03/23 09:17:25;;;;;;;;;;;8.60;89.90;;;;;;5084093;28;19920;-68
2022/03/23 09:19:52;;;;;;;;;;;8.70;88.40;;;;;;5084722;28;19985;-68
2022/03/23 09:22:20;;;;;;;;;;;8.90;88.10;;;;;;5083878;28;19924;-68
2022/03/23 09:24:46;;;;;;;;;;;9.00;88.60;;;;;;5066638;28;19920;-69
2022/03/23 09:27:14;;;;;;;;;;;9.10;89.00;;;;;;5063964;28;19927;-68
2022/03/23 09:29:42;;;;;;;;;;;9.30;90.40;;;;;;5071377;28;19921;-69
2022/03/23 09:32:10;;;;;;;;;;;9.50;90.30;;;;;;5064084;28;19944;-68
2022/03/23 09:34:36;;;;;;;;;;;9.60;90.00;;;;;;5062825;28;20212;-69
2022/03/23 09:39:47;;;;;;;;;;;10.00;88.00;;;;;;5057938;28;19980;-71
2022/03/23 09:42:15;;;;;;;;;;;10.10;88.90;;;;;;5064376;28;19944;-70
2022/03/23 09:44:43;;;;;;;;;;;10.20;89.00;;;;;;5063852;28;19921;-70
2022/03/23 09:47:09;;;;;;;;;;;10.40;88.80;;;;;;5058259;28;19992;-70
2022/03/23 09:49:36;;;;;;;;;;;10.50;89.40;;;;;;5074385;28;20023;-71
2022/03/23 09:52:03;;;;;;;;;;;10.70;88.20;;;;;;5084201;28;19928;-71
2022/03/23 09:54:29;;;;;;;;;;;10.80;87.60;;;;;;5083779;28;19920;-71
2022/03/23 09:56:56;;;;;;;;;;;10.90;89.50;;;;;;5064854;28;19921;-70
2022/03/23 09:59:23;;;;;;;;;;;11.10;89.20;;;;;;5063318;28;19968;-72
2022/03/23 10:02:13;;;;;;;;;;;11.30;86.40;;;;;;5062503;28;19928;-71
2022/03/23 10:04:58;;;;;;;;;;;11.60;86.10;;;;;;5058112;28;19920;-70
2022/03/23 10:07:29;;;;;;;;;;;12.00;85.70;;;;;;5062470;28;19967;-70
2022/03/23 10:10:16;;;;;;;;;;;12.20;81.10;;;;;;5061554;28;19921;-70
2022/03/23 10:13:00;;;;;;;;;;;12.40;82.50;;;;;;5043672;28;19921;-69
2022/03/23 10:15:57;;;;;;;;;;;12.60;80.40;;;;;;5045796;28;19937;-69
2022/03/23 10:18:49;;;;;;;;;;;12.70;77.20;;;;;;5070604;28;19956;-69
2022/03/23 10:21:16;;;;;;;;;;;12.90;76.40;;;;;;5043540;28;19921;-70
2022/03/23 10:23:52;;;;;;;;;;;13.00;75.90;;;;;;5043434;28;20231;-70
2022/03/23 10:26:19;;;;;;;;;;;13.20;76.70;;;;;;5050105;28;19936;-70
2022/03/23 10:28:45;;;;;;;;;;;13.40;73.40;;;;;;5067935;28;19921;-70
2022/03/23 10:31:16;;;;;;;;;;;13.50;72.80;;;;;;5074075;28;19928;-70
2022/03/23 10:33:43;;;;;;;;;;;13.80;71.30;;;;;;5062805;28;19946;-70
2022/03/23 10:36:11;;;;;;;;;;;14.00;71.60;;;;;;5062769;28;19920;-71
2022/03/23 10:38:38;;;;;;;;;;;14.20;71.90;;;;;;5063367;28;19921;-70
2022/03/23 10:41:11;;;;;;;;;;;14.40;70.70;;;;;;5063587;28;19920;-69
2022/03/23 10:43:38;;;;;;;;;;;14.50;70.00;;;;;;5063809;28;19921;-66
2022/03/23 10:46:08;;;;;;;;;;;14.70;70.00;;;;;;5064400;28;19943;-67
2022/03/23 10:48:50;;;;;;;;;;;14.80;69.90;;;;;;5080821;28;19974;-67
2022/03/23 10:51:26;;;;;;;;;;;15.00;70.10;;;;;;5083521;28;19920;-67
2022/03/23 10:53:58;;;;;;;;;;;15.10;67.60;;;;;;5083270;28;19920;-67
2022/03/23 10:56:31;;;;;;;;;;;15.30;67.80;;;;;;5062977;28;19965;-68
2022/03/23 10:59:17;;;;;;;;;;;15.40;65.50;;;;;;5049339;28;20212;-67
2022/03/23 11:01:58;;;;;;;;;;;15.60;67.60;;;;;;5022880;28;19938;-66
2022/03/23 11:04:28;;;;;;;;;;;15.80;66.80;;;;;;5035333;28;19959;-70
2022/03/23 11:06:56;;;;;;;;;;;15.90;65.80;;;;;;5042175;28;19921;-70
2022/03/23 11:17:49;;;;;;;;;;;16.50;65.50;;;;;;5041255;28;19960;-70
2022/03/23 11:20:16;;;;;;;;;;;16.60;66.30;;;;;;5042638;28;20224;-71
2022/03/23 11:22:43;;;;;;;;;;;16.70;62.90;;;;;;5041016;28;20239;-73
2022/03/23 11:25:09;;;;;;;;;;;16.70;64.70;;;;;;5040437;28;19925;-71
2022/03/23 11:27:38;;;;;;;;;;;16.80;63.30;;;;;;5041706;28;19921;-72
2022/03/23 11:30:06;;;;;;;;;;;16.90;64.60;;;;;;5037984;28;19928;-72
2022/03/23 11:32:37;;;;;;;;;;;17.00;64.80;;;;;;5041466;28;19921;-71
2022/03/23 11:35:06;;;;;;;;;;;17.10;64.10;;;;;;5042064;28;19925;-71
2022/03/23 11:37:34;;;;;;;;;;;17.30;63.70;;;;;;5042208;28;19929;-71
2022/03/23 11:40:00;;;;;;;;;;;17.30;62.90;;;;;;5039563;28;19976;-71
2022/03/23 11:42:29;;;;;;;;;;;17.30;63.50;;;;;;5042213;28;19921;-70
2022/03/23 11:44:57;;;;;;;;;;;17.40;62.30;;;;;;5043252;28;20116;-69
2022/03/23 11:47:32;;;;;;;;;;;17.60;62.50;;;;;;5045144;28;19921;-70
2022/03/23 11:50:03;;;;;;;;;;;17.60;62.10;;;;;;5046526;28;19925;-70
2022/03/23 11:52:35;;;;;;;;;;;17.80;61.40;;;;;;5046563;28;19921;-69
2022/03/23 11:58:04;;;;;;;;;;;18.10;58.80;;;;;;5049053;28;19931;-69
2022/03/23 12:00:38;;;;;;;;;;;18.30;59.40;;;;;;5065880;28;19920;-69
2022/03/23 12:03:05;;;;;;;;;;;18.40;62.10;;;;;;5070250;28;20108;-68
2022/03/23 12:05:33;;;;;;;;;;;18.50;60.70;;;;;;5066596;28;19948;-68
2022/03/23 12:07:59;;;;;;;;;;;18.70;60.00;;;;;;5065574;28;19963;-69
2022/03/23 12:10:32;;;;;;;;;;;18.80;60.00;;;;;;5061691;28;19921;-69
2022/03/23 12:13:01;;;;;;;;;;;19.00;57.40;;;;;;5045169;28;19921;-71
2022/03/23 12:15:28;;;;;;;;;;;19.00;58.20;;;;;;5045317;28;19930;-69
2022/03/23 12:18:00;;;;;;;;;;;19.00;57.70;;;;;;5045987;28;19921;-69
2022/03/23 12:20:31;;;;;;;;;;;19.10;57.20;;;;;;5073808;28;19928;-70
2022/03/23 12:23:10;;;;;;;;;;;19.30;59.00;;;;;;5070446;28;19943;-68
2022/03/23 12:25:41;;;;;;;;;;;19.50;57.00;;;;;;5044858;28;19929;-70
2022/03/23 12:28:17;;;;;;;;;;;19.50;59.00;;;;;;5045837;28;19921;-68
2022/03/23 12:30:47;;;;;;;;;;;19.60;57.50;;;;;;5045951;28;19927;-70
2022/03/23 12:33:21;;;;;;;;;;;19.70;56.70;;;;;;5045899;28;20136;-70
2022/03/23 12:35:48;;;;;;;;;;;19.90;56.50;;;;;;5045127;28;20108;-70
2022/03/23 12:38:18;;;;;;;;;;;20.00;56.00;;;;;;5045766;28;19963;-70
2022/03/23 12:40:45;;;;;;;;;;;20.00;58.40;;;;;;5044558;28;19925;-72
2022/03/23 12:43:32;;;;;;;;;;;20.10;57.20;;;;;;5044718;28;19921;-69
2022/03/23 12:45:59;;;;;;;;;;;20.20;56.60;;;;;;5046971;28;20139;-69
2022/03/23 12:59:48;;;;;;;;;;;20.70;56.00;;;;;;5064600;28;20258;-69
2022/03/23 13:02:28;;;;;;;;;;;20.80;54.00;;;;;;5061679;28;19931;-69
2022/03/23 13:04:56;;;;;;;;;;;20.70;55.20;;;;;;5064810;28;19921;-69
2022/03/23 13:07:41;;;;;;;;;;;20.70;53.40;;;;;;5064381;28;19921;-69
2022/03/23 13:10:08;;;;;;;;;;;20.80;53.20;;;;;;5054798;28;19921;-69
2022/03/23 13:12:35;;;;;;;;;;;21.00;55.00;;;;;;5045121;28;19921;-69
2022/03/23 13:15:08;;;;;;;;;;;21.10;55.00;;;;;;5061405;28;19920;-68
2022/03/23 13:17:39;;;;;;;;;;;21.10;54.80;;;;;;5052141;28;19967;-69
2022/03/23 13:20:08;;;;;;;;;;;20.90;54.90;;;;;;5044990;28;19927;-69
2022/03/23 13:22:38;;;;;;;;;;;20.90;55.90;;;;;;5041509;28;19921;-71
2022/03/23 13:25:08;;;;;;;;;;;21.20;55.80;;;;;;5057890;28;19928;-70
2022/03/23 13:27:34;;;;;;;;;;;21.40;55.30;;;;;;5043933;28;19921;-69
2022/03/23 13:30:01;;;;;;;;;;;21.60;53.80;;;;;;5050483;28;19924;-69
2022/03/23 13:32:32;;;;;;;;;;;21.70;55.40;;;;;;5062169;28;19927;-69
2022/03/23 13:34:59;;;;;;;;;;;21.80;54.90;;;;;;5045816;28;19921;-69
2022/03/23 13:37:25;;;;;;;;;;;21.50;53.70;;;;;;5043673;28;20209;-69
2022/03/23 13:39:52;;;;;;;;;;;21.30;54.10;;;;;;5055533;28;19924;-69
2022/03/23 13:45:09;;;;;;;;;;;21.80;52.70;;;;;;5052398;28;21468;-68
2022/03/23 13:47:36;;;;;;;;;;;21.70;52.00;;;;;;5056807;28;19988;-69
2022/03/23 13:50:04;;;;;;;;;;;21.70;52.40;;;;;;5058804;28;19921;-69
2022/03/23 13:52:31;;;;;;;;;;;21.90;52.70;;;;;;5046398;28;19921;-68
2022/03/23 13:54:58;;;;;;;;;;;22.10;50.70;;;;;;5063707;28;19975;-68
2022/03/23 13:57:28;;;;;;;;;;;22.10;50.40;;;;;;5045324;28;19990;-70
2022/03/23 13:59:55;;;;;;;;;;;22.20;51.40;;;;;;5052446;28;20110;-69
2022/03/23 14:02:23;;;;;;;;;;;22.40;51.10;;;;;;5046899;28;19943;-69
2022/03/23 14:04:50;;;;;;;;;;;22.30;52.70;;;;;;5063059;28;19929;-70
2022/03/23 14:07:16;;;;;;;;;;;22.40;51.50;;;;;;5063185;28;19921;-69
2022/03/23 14:09:43;;;;;;;;;;;22.60;52.10;;;;;;5070136;28;20184;-69
2022/03/23 14:12:10;;;;;;;;;;;22.70;51.00;;;;;;5063853;28;19956;-69
2022/03/23 14:14:39;;;;;;;;;;;22.90;50.40;;;;;;5055695;28;19927;-69
2022/03/23 14:17:08;;;;;;;;;;;23.00;49.90;;;;;;5063231;28;19921;-69
2022/03/23 14:19:35;;;;;;;;;;;23.20;49.40;;;;;;5060779;28;19959;-70
2022/03/23 14:22:03;;;;;;;;;;;23.40;50.10;;;;;;5061885;28;19937;-69
2022/03/23 14:24:32;;;;;;;;;;;23.60;49.80;;;;;;5043398;28;19921;-69
2022/03/23 14:27:13;;;;;;;;;;;23.80;49.50;;;;;;5048561;28;19921;-69
2022/03/23 14:29:42;;;;;;;;;;;23.90;49.10;;;;;;5053911;28;19921;-70
2022/03/23 14:32:10;;;;;;;;;;;23.80;51.00;;;;;;5043489;28;19921;-69
2022/03/23 14:34:38;;;;;;;;;;;23.80;49.80;;;;;;5060632;28;19921;-69
2022/03/23 14:37:06;;;;;;;;;;;23.90;49.30;;;;;;5043152;28;19927;-71
2022/03/23 14:39:39;;;;;;;;;;;23.90;48.80;;;;;;5055672;28;19920;-69
2022/03/23 14:42:08;;;;;;;;;;;24.00;48.80;;;;;;5063434;28;20216;-70
2022/03/23 14:44:35;;;;;;;;;;;24.00;47.80;;;;;;5062748;28;19921;-69
2022/03/23 14:47:05;;;;;;;;;;;24.00;47.20;;;;;;5055208;28;19921;-69
2022/03/23 14:49:36;;;;;;;;;;;24.00;47.10;;;;;;5062835;28;19921;-70
2022/03/23 14:52:03;;;;;;;;;;;24.00;48.60;;;;;;5083775;28;19988;-69
2022/03/23 14:54:29;;;;;;;;;;;24.10;48.30;;;;;;5066334;28;19921;-70
2022/03/23 14:56:56;;;;;;;;;;;23.90;47.20;;;;;;5065457;28;19928;-69
2022/03/23 14:59:22;;;;;;;;;;;23.80;47.30;;;;;;5074994;28;20092;-71
2022/03/23 15:01:56;;;;;;;;;;;23.80;48.00;;;;;;5043431;28;19921;-70
2022/03/23 15:04:25;;;;;;;;;;;24.00;47.30;;;;;;5051401;28;20010;-70
2022/03/23 15:15:06;;;;;;;;;;;23.60;47.50;;;;;;5049070;28;19962;-70